createdAt,value
2023-01-21T00:03:47.588Z,11.02
2023-01-21T00:08:50.429Z,11.15
2023-01-21T00:13:53.134Z,10.68
2023-01-21T00:18:58.291Z,10.32
2023-01-21T00:24:01.032Z,10.75
2023-01-21T00:29:03.895Z,11.25
2023-01-21T00:34:08.013Z,10.95
2023-01-21T00:39:10.933Z,10.18
2023-01-21T00:44:13.646Z,12.02
2023-01-21T00:49:17.767Z,11.35
2023-01-21T00:54:20.654Z,12.57
2023-01-21T00:59:23.402Z,12.77
2023-01-21T01:04:27.480Z,12.48
2023-01-21T01:09:30.593Z,13.20
2023-01-21T01:14:33.512Z,14.25
2023-01-21T01:19:37.669Z,13.00
2023-01-21T01:24:40.459Z,13.50
2023-01-21T01:29:43.195Z,13.32
2023-01-21T01:34:47.276Z,12.77
2023-01-21T01:39:50.033Z,13.57
2023-01-21T01:44:59.161Z,13.85
2023-01-21T01:50:05.319Z,13.65
2023-01-21T01:55:09.692Z,13.40
2023-01-21T02:00:14.415Z,12.98
2023-01-21T02:05:18.843Z,13.65
2023-01-21T02:10:21.792Z,13.35
2023-01-21T02:15:30.224Z,13.07
2023-01-21T02:26:35.903Z,13.15
2023-01-21T02:32:11.682Z,13.27
2023-01-21T02:37:20.755Z,13.10
2023-01-21T02:42:32.779Z,13.80
2023-01-21T02:47:42.141Z,13.82
2023-01-21T02:52:46.214Z,13.68
2023-01-21T02:57:53.054Z,13.82
2023-01-21T03:03:23.100Z,13.10
2023-01-21T03:08:35.097Z,12.82
2023-01-21T03:14:00.693Z,13.93
2023-01-21T03:19:08.043Z,13.32
2023-01-21T03:24:15.393Z,13.10
2023-01-21T03:29:23.559Z,14.63
2023-01-21T03:34:30.968Z,13.65
2023-01-21T03:39:42.622Z,14.02
2023-01-21T03:44:47.140Z,13.45
2023-01-21T03:49:54.627Z,13.80
2023-01-21T03:54:58.820Z,14.33
2023-01-21T04:00:01.551Z,14.00
2023-01-21T04:05:07.888Z,14.73
2023-01-21T04:10:12.639Z,15.02
2023-01-21T04:15:15.537Z,15.95
2023-01-21T04:20:18.814Z,16.00
2023-01-21T04:25:23.137Z,17.17
2023-01-21T04:30:25.884Z,16.35
2023-01-21T04:35:28.648Z,14.77
2023-01-21T04:40:32.891Z,14.75
2023-01-21T04:45:35.718Z,15.60
2023-01-21T04:50:39.667Z,16.23
2023-01-21T04:55:43.804Z,16.15
2023-01-21T05:00:46.538Z,15.63
2023-01-21T05:05:49.419Z,16.55
2023-01-21T05:10:53.509Z,16.95
2023-01-21T05:15:56.858Z,16.90
2023-01-21T05:20:59.675Z,16.98
2023-01-21T05:26:04.599Z,17.02
2023-01-21T05:31:07.491Z,17.38
2023-01-21T05:36:11.130Z,17.13
2023-01-21T05:41:15.313Z,16.52
2023-01-21T05:46:18.307Z,16.85
2023-01-21T05:51:21.196Z,15.23
2023-01-21T05:56:25.583Z,15.57
2023-01-21T06:01:28.426Z,14.88
2023-01-21T06:06:31.615Z,14.57
2023-01-21T06:11:35.824Z,14.80
2023-01-21T06:16:38.614Z,14.20
2023-01-21T06:21:41.533Z,13.68
2023-01-21T06:26:45.710Z,15.98
2023-01-21T06:31:48.713Z,14.32
2023-01-21T06:36:51.798Z,14.68
2023-01-21T06:41:55.988Z,15.43
2023-01-21T06:47:00.921Z,13.75
2023-01-21T06:52:04.986Z,14.25
2023-01-21T06:57:09.246Z,14.25
2023-01-21T07:02:13.877Z,13.77
2023-01-21T07:07:16.777Z,15.02
2023-01-21T07:12:20.982Z,14.98
2023-01-21T07:17:23.804Z,15.30
2023-01-21T07:22:26.529Z,15.60
2023-01-21T07:27:30.634Z,15.10
2023-01-21T07:32:33.421Z,15.50
2023-01-21T07:37:41.431Z,15.57
2023-01-21T07:42:51.205Z,16.52
2023-01-21T07:47:55.139Z,14.85
2023-01-21T07:52:59.554Z,16.35
2023-01-21T07:58:03.754Z,15.50
2023-01-21T08:03:06.606Z,16.35
2023-01-21T08:08:09.367Z,15.98
2023-01-21T08:13:13.481Z,17.50
2023-01-21T08:18:16.282Z,17.25
2023-01-21T08:23:19.034Z,15.68
2023-01-21T08:28:24.079Z,16.13
2023-01-21T08:33:26.864Z,15.10
2023-01-21T08:38:30.155Z,14.98
2023-01-21T08:43:34.227Z,14.90
2023-01-21T08:48:38.775Z,15.02
2023-01-21T08:53:41.673Z,15.77
2023-01-21T08:58:46.048Z,15.20
2023-01-21T09:03:48.794Z,16.05
2023-01-21T09:08:51.607Z,16.45
2023-01-21T09:13:57.931Z,16.08
2023-01-21T09:19:00.717Z,15.60
2023-01-21T09:24:03.735Z,16.10
2023-01-21T09:29:07.910Z,15.38
2023-01-21T09:34:11.656Z,15.75
2023-01-21T09:39:14.492Z,17.45
2023-01-21T09:44:25.923Z,16.25
2023-01-21T09:49:32.062Z,15.68
2023-01-21T09:54:37.741Z,14.50
2023-01-21T09:59:56.179Z,14.30
2023-01-21T10:05:18.296Z,14.95
2023-01-21T10:10:29.887Z,14.15
2023-01-21T10:15:45.144Z,14.82
2023-01-21T10:20:52.236Z,14.27
2023-01-21T10:25:57.261Z,13.30
2023-01-21T10:31:08.183Z,13.48
2023-01-21T10:36:51.651Z,13.70
2023-01-21T10:42:13.530Z,13.73
2023-01-21T10:47:29.999Z,12.43
2023-01-21T10:52:41.122Z,11.65
2023-01-21T10:57:56.990Z,12.75
2023-01-21T11:03:05.951Z,12.63
2023-01-21T11:08:14.740Z,13.85
2023-01-21T11:13:17.573Z,12.02
2023-01-21T11:18:30.505Z,12.48
2023-01-21T11:23:35.706Z,11.75
2023-01-21T11:28:38.656Z,11.00
2023-01-21T11:33:43.985Z,11.05
2023-01-21T11:38:49.180Z,11.50
2023-01-21T11:43:54.108Z,11.32
2023-01-21T11:49:18.604Z,11.10
2023-01-21T11:54:23.055Z,10.18
2023-01-21T11:59:33.920Z,10.38
2023-01-21T12:04:39.119Z,10.10
2023-01-21T12:09:42.121Z,10.55
2023-01-21T12:14:53.024Z,9.02
2023-01-21T12:20:13.028Z,9.77
2023-01-21T12:25:30.530Z,9.73
2023-01-21T12:30:42.698Z,9.55
2023-01-21T12:35:51.516Z,10.15
2023-01-21T12:41:00.675Z,10.10
2023-01-21T12:46:10.725Z,10.45
2023-01-21T12:51:21.308Z,10.48
2023-01-21T12:56:31.688Z,11.57
2023-01-21T13:01:46.405Z,10.93
2023-01-21T13:06:59.384Z,10.82
2023-01-21T13:12:05.629Z,12.07
2023-01-21T13:17:18.009Z,11.63
2023-01-21T13:22:34.789Z,12.32
2023-01-21T13:27:45.113Z,12.90
2023-01-21T13:32:54.441Z,12.15
2023-01-21T13:38:08.799Z,12.07
2023-01-21T13:43:25.221Z,13.05
2023-01-21T13:48:42.752Z,12.02
2023-01-21T13:54:03.689Z,12.00
2023-01-21T13:59:13.488Z,12.75
2023-01-21T14:04:26.511Z,13.75
2023-01-21T14:09:38.440Z,13.00
2023-01-21T14:14:58.737Z,12.75
2023-01-21T14:20:26.545Z,11.93
2023-01-21T14:25:46.529Z,11.35
2023-01-21T14:30:58.893Z,12.23
2023-01-21T14:36:08.999Z,11.45
2023-01-21T14:41:13.717Z,11.82
2023-01-21T14:46:32.661Z,11.60
2023-01-21T14:51:37.849Z,10.93
2023-01-21T14:56:53.176Z,11.02
2023-01-21T15:02:01.500Z,9.48
2023-01-21T15:12:17.461Z,9.38
2023-01-21T15:17:45.839Z,8.80
2023-01-21T15:23:05.229Z,8.90
2023-01-21T15:28:38.190Z,8.85
2023-01-21T15:33:47.590Z,8.07
2023-01-21T15:38:52.034Z,7.82
2023-01-21T15:44:06.466Z,7.95
2023-01-21T15:49:28.606Z,8.77
2023-01-21T15:54:37.943Z,8.15
2023-01-21T15:59:54.583Z,7.30
2023-01-21T16:05:11.067Z,6.97
2023-01-21T16:10:22.436Z,6.25
2023-01-21T16:15:40.038Z,5.28
2023-01-21T16:20:47.259Z,5.67
2023-01-21T16:25:53.340Z,5.20
2023-01-21T16:30:58.952Z,5.70
2023-01-21T16:36:07.269Z,5.57
2023-01-21T16:41:27.495Z,5.38
2023-01-21T16:46:34.572Z,5.47
2023-01-21T16:51:42.970Z,5.10
2023-01-21T17:01:51.402Z,5.32
2023-01-21T17:06:55.762Z,5.40
2023-01-21T17:12:02.916Z,4.72
2023-01-21T17:17:09.535Z,6.97
2023-01-21T17:22:17.449Z,6.70
2023-01-21T17:27:23.262Z,6.68
2023-01-21T17:32:27.991Z,6.35
2023-01-21T17:37:46.192Z,5.80
2023-01-21T17:42:49.049Z,6.47
2023-01-21T17:48:08.695Z,7.95
2023-01-21T17:53:23.165Z,7.65
2023-01-21T17:58:44.783Z,9.02
2023-01-21T18:03:47.603Z,8.13
2023-01-21T18:08:52.800Z,7.65
2023-01-21T18:13:55.622Z,8.30
2023-01-21T18:18:58.633Z,8.32
2023-01-21T18:24:02.796Z,8.05
2023-01-21T18:29:05.596Z,7.47
2023-01-21T18:34:08.743Z,7.10
2023-01-21T18:39:15.029Z,7.70
2023-01-21T18:44:18.129Z,6.38
2023-01-21T18:49:22.893Z,8.25
2023-01-21T18:54:27.037Z,7.97
2023-01-21T18:59:29.911Z,7.30
2023-01-21T19:04:32.699Z,8.30
2023-01-21T19:09:40.774Z,8.50
2023-01-21T19:14:44.167Z,8.60
2023-01-21T19:19:46.999Z,7.05
2023-01-21T19:24:51.356Z,7.22
2023-01-21T19:29:54.478Z,7.85
2023-01-21T19:34:57.811Z,7.78
2023-01-21T19:40:02.290Z,9.32
2023-01-21T19:45:05.724Z,8.60
2023-01-21T19:50:12.018Z,8.75
2023-01-21T19:55:18.071Z,9.07
2023-01-21T20:00:23.419Z,8.25
2023-01-21T20:05:27.667Z,7.97
2023-01-21T20:10:32.338Z,7.82
2023-01-21T20:15:35.677Z,8.50
2023-01-21T20:20:38.496Z,8.05
2023-01-21T20:25:44.540Z,8.27
2023-01-21T20:30:48.291Z,8.75
2023-01-21T20:35:54.682Z,8.80
2023-01-21T20:40:59.304Z,9.50
2023-01-21T20:46:05.466Z,8.65
2023-01-21T20:51:08.983Z,8.57
2023-01-21T20:56:21.997Z,9.00
2023-01-21T21:01:26.747Z,8.32
2023-01-21T21:06:30.548Z,8.20
2023-01-21T21:11:34.728Z,7.45
2023-01-21T21:16:38.117Z,8.80
2023-01-21T21:21:40.926Z,7.95
2023-01-21T21:26:45.890Z,8.32
2023-01-21T21:31:48.863Z,8.02
2023-01-21T21:36:51.701Z,7.20
2023-01-21T21:42:15.872Z,7.10
2023-01-21T21:47:36.416Z,6.53
2023-01-21T21:52:39.170Z,6.85
2023-01-21T21:57:43.400Z,5.03
2023-01-21T22:02:46.168Z,5.80
2023-01-21T22:07:48.945Z,6.00
2023-01-21T22:12:53.220Z,5.70
2023-01-21T22:17:57.024Z,5.05
2023-01-21T22:22:59.832Z,4.63
2023-01-21T22:28:04.103Z,4.45
2023-01-21T22:33:07.556Z,3.92
2023-01-21T22:38:10.333Z,4.95
2023-01-21T22:43:15.513Z,4.32
2023-01-21T22:48:18.483Z,4.07
2023-01-21T22:53:21.484Z,4.35
2023-01-21T22:58:28.227Z,4.50
2023-01-21T23:03:31.826Z,4.07
2023-01-21T23:08:34.736Z,4.15
2023-01-21T23:13:38.917Z,4.85
2023-01-21T23:18:42.653Z,3.80
2023-01-21T23:23:45.658Z,4.63
2023-01-21T23:28:49.791Z,4.45
2023-01-21T23:33:53.628Z,5.22
2023-01-21T23:38:56.419Z,4.53
2023-01-21T23:44:01.430Z,5.03
2023-01-21T23:49:04.202Z,4.40
2023-01-21T23:54:07.027Z,4.80
2023-01-21T23:59:12.984Z,5.60
